Xinyang, China
Current Conditions -  °F | °C
As of 6:00 PM on Saturday 25 Oct 2014 (Local Time) from ZHHH Reporting Station
Clear Clear  
Wind Chill: 73°   Ceiling: Unl
Heat Index: 73°   Visibility: 4mi
Dew Point: 61°   Wind: 2mph
Humidity: 65%   Direction: NA
Pressure: 29.97"   Gusts: NA
Location:  32.13°N, 114.07°E
Report Text: ZHHH 251000Z VRB01MPS 7000 NSC 23/16 Q1015 NOSIG
Loading
Personal Weather Stations






























Interactive Weather Map
Tropical Storm Tracking
New forecast layout! Learn more

10-Day Weather Forecast

Advertisements
Track Severe Weather on mobile